| DS18B20 | SHTC3 | ||||||
|---|---|---|---|---|---|---|---|
| ID | Date d/m/Y & Time | data1 สูง | data2 ต่ำ | data3 นอก | temp pcb | hum pcb | Time |
| 10241 | 09/04/2026 12:09:30 | 33.8  | 32.0  | 34.7  | 32.8  | 64.2  | 12:09 |
| 10240 | 09/04/2026 12:04:49 | 33.7  | 31.9  | 35.0  | 32.7  | 64.2  | 12:04 |
| 10239 | 09/04/2026 12:00:07 | 33.6  | 31.9  | 35.0  | 32.8  | 64.3  | 12:00 |
| 10238 | 09/04/2026 11:55:23 | 33.6  | 31.8  | 35.0  | 32.7  | 64.4  | 11:55 |
| 10237 | 09/04/2026 11:50:41 | 33.4  | 31.8  | 35.2  | 32.5  | 64.5  | 11:50 |
| 10236 | 09/04/2026 11:45:59 | 33.4  | 31.7  | 35.3  | 32.5  | 64.7  | 11:45 |
| 10235 | 09/04/2026 11:41:16 | 33.2  | 31.6  | 35.4  | 32.3  | 64.5  | 11:41 |
| 10234 | 09/04/2026 11:36:34 | 33.2  | 31.6  | 35.0  | 32.2  | 64.6  | 11:36 |
| 10233 | 09/04/2026 11:31:53 | 33.1  | 31.5  | 34.9  | 32.2  | 64.7  | 11:31 |
| 10232 | 09/04/2026 11:27:11 | 33.0  | 31.4  | 34.8  | 32.3  | 64.8  | 11:27 |
| 10231 | 09/04/2026 11:22:29 | 32.9  | 31.4  | 34.9  | 32.1  | 64.6  | 11:22 |
| 10230 | 09/04/2026 11:17:47 | 32.9  | 31.3  | 34.7  | 32.0  | 64.8  | 11:17 |
| 10229 | 09/04/2026 11:13:05 | 32.8  | 31.2  | 34.5  | 32.0  | 64.7  | 11:13 |
| 10228 | 09/04/2026 11:08:23 | 32.8  | 31.2  | 34.4  | 32.1  | 64.8  | 11:08 |
| 10227 | 09/04/2026 11:03:41 | 32.7  | 31.1  | 34.9  | 31.6  | 64.7  | 11:03 |
| 10226 | 09/04/2026 10:58:59 | 32.6  | 31.1  | 34.4  | 31.8  | 64.8  | 10:58 |
| 10225 | 09/04/2026 10:54:15 | 32.6  | 31.0  | 34.6  | 31.6  | 64.8  | 10:54 |
| 10224 | 09/04/2026 10:49:33 | 32.4  | 30.9  | 34.5  | 31.4  | 64.9  | 10:49 |
| 10223 | 09/04/2026 10:44:51 | 32.3  | 30.8  | 34.2  | 31.5  | 65.0  | 10:44 |
| 10222 | 09/04/2026 10:40:09 | 32.2  | 30.8  | 34.0  | 31.5  | 65.2  | 10:40 |
| 10221 | 09/04/2026 10:35:27 | 32.1  | 30.7  | 33.9  | 31.5  | 65.2  | 10:35 |
| 10220 | 09/04/2026 10:30:46 | 32.0  | 30.6  | 33.9  | 31.2  | 65.3  | 10:30 |
| 10219 | 09/04/2026 10:26:04 | 31.9  | 30.5  | 33.7  | 31.2  | 65.3  | 10:26 |
| 10218 | 09/04/2026 10:21:22 | 31.8  | 30.4  | 33.9  | 31.1  | 65.5  | 10:21 |